ADDS METAR Data INFO
IDs: Format: Raw Decoded Include TAF

Data at: 1452 UTC 11 Dec 2017

KONL 111435Z AUTO 31024G34KT 10SM BKN055 06/M02 A3004 RMK AO2 T00551025
KONL 111415Z AUTO 31023G34KT 10SM CLR 05/M03 A3004 RMK AO2 T00491030
KONL 111355Z AUTO 32023G31KT 10SM CLR 05/M03 A3004 RMK AO2 T00501035
KONL 111335Z AUTO 32025G39KT 10SM CLR 06/M04 A3004 RMK AO2 T00551042
KONL 111315Z AUTO 32019G30KT 10SM CLR 06/M05 A3003 RMK AO2 T00581055
KONL 111255Z AUTO 32020G29KT 10SM CLR 07/M06 A3002 RMK AO2 T00671060
KONL 111235Z AUTO 31019G31KT 10SM CLR 08/M06 A3001 RMK AO2 T00751062
KONL 111215Z AUTO 31020G29KT 10SM CLR 08/M07 A3000 RMK AO2 T00751070
KONL 111155Z AUTO 31022G30KT 10SM CLR 08/M07 A3000 RMK AO2 T00811071 10082 20058
KONL 111135Z AUTO 30021G26KT 10SM CLR 08/M07 A2999 RMK AO2 T00801073
KONL 111115Z AUTO 30017G25KT 10SM CLR 08/M07 A2998 RMK AO2 T00801070
KONL 111055Z AUTO 30020G27KT 10SM CLR 08/M07 A2998 RMK AO2 T00801068
KONL 111035Z AUTO 30019G24KT 10SM CLR 08/M07 A2999 RMK AO2 T00761070
KONL 111015Z AUTO 29016G20KT 10SM CLR 07/M07 A2999 RMK AO2 T00711074
KONL 110955Z AUTO 29013G22KT 10SM CLR 08/M07 A2999 RMK AO2 T00751075
KONL 110935Z AUTO 29016G22KT 10SM CLR 08/M08 A2999 RMK AO2 T00771076
KONL 110915Z AUTO 29017G23KT 10SM CLR 08/M08 A2999 RMK AO2 T00791076
KONL 110855Z AUTO 28016G23KT 10SM CLR 07/M08 A2999 RMK AO2 T00741077
KONL 110835Z AUTO 28014G18KT 10SM CLR 07/M08 A2998 RMK AO2 T00651077
KONL 110815Z AUTO 28012KT 10SM CLR 06/M08 A2998 RMK AO2 T00621077
KONL 110755Z AUTO 28012KT 10SM CLR 06/M08 A2999 RMK AO2 T00591076
KONL 110735Z AUTO 28012KT 10SM CLR 06/M08 A2999 RMK AO2 T00621076
KONL 110715Z AUTO 28012G18KT 10SM CLR 07/M07 A3000 RMK AO2 T00651075
KONL 110655Z AUTO 28010KT 10SM CLR 06/M07 A3001 RMK AO2 T00641073
KONL 110635Z AUTO 27010KT 10SM CLR 07/M07 A3001 RMK AO2 T00671071
KONL 110615Z AUTO 28011KT 10SM CLR 07/M07 A3002 RMK AO2 T00721070
KONL 110555Z AUTO 26009KT 10SM CLR 06/M07 A3002 RMK AO2 T00581070 10075 20042 401420032
KONL 110535Z AUTO 25007KT 10SM CLR 05/M08 A3001 RMK AO2 T00531076
KONL 110515Z AUTO 28008KT 10SM CLR 07/M07 A3003 RMK AO2 T00711071
KONL 110455Z AUTO 28008KT 10SM CLR 07/M07 A3003 RMK AO2 T00741067
KONL 110435Z AUTO 28010KT 10SM CLR 07/M06 A3004 RMK AO2 T00701065
KONL 110415Z AUTO 28010KT 10SM CLR 06/M06 A3004 RMK AO2 T00571065
KONL 110355Z AUTO 27007KT 10SM CLR 05/M06 A3004 RMK AO2 T00511065
KONL 110335Z AUTO 27008KT 10SM CLR 05/M07 A3005 RMK AO2 T00471067
KONL 110315Z AUTO 27007KT 10SM CLR 06/M07 A3006 RMK AO2 T00551068
KONL 110255Z AUTO 26008KT 10SM CLR 05/M07 A3006 RMK AO2 T00501068
KONL 110235Z AUTO 26008KT 10SM CLR 06/M07 A3007 RMK AO2 T00561066
KONL 110220Z AUTO 26007KT 10SM CLR 06/M06 A3007 RMK AO2 T00621065
KONL 110155Z AUTO 25006KT 10SM CLR 06/M06 A3007 RMK AO2 T00631064
KONL 110135Z AUTO 26007KT 10SM CLR 05/M06 A3008 RMK AO2 T00541064
KONL 110115Z AUTO 24006KT 10SM CLR 04/M06 A3009 RMK AO2 T00441065
KONL 110055Z AUTO 25006KT 10SM CLR 05/M07 A3009 RMK AO2 T00461066
KONL 110035Z AUTO 23005KT 10SM CLR 06/M07 A3009 RMK AO2 T00571070
KONL 110015Z AUTO 24005KT 10SM CLR 06/M07 A3009 RMK AO2 T00631070
KONL 102355Z AUTO 26004KT 10SM CLR 06/M07 A3010 RMK AO2 T00621068 10142 20055
KONL 102335Z AUTO 27004KT 10SM CLR 08/M07 A3010 RMK AO2 T00751073
KONL 102315Z AUTO 27004KT 10SM CLR 08/M07 A3010 RMK AO2 T00791073
KONL 102255Z AUTO 30005KT 10SM CLR 11/M07 A3010 RMK AO2 T01061068
KONL 102235Z AUTO 30006KT 10SM CLR 11/M06 A3010 RMK AO2 T01141065
KONL 102215Z AUTO 30007KT 10SM CLR 13/M06 A3010 RMK AO2 T01291063
KONL 102155Z AUTO 31011KT 10SM CLR 14/M07 A3010 RMK AO2 T01371066
KONL 102135Z AUTO 30010KT 10SM CLR 14/M07 A3010 RMK AO2 T01401068
KONL 102115Z AUTO 30010G16KT 10SM CLR 14/M07 A3010 RMK AO2 T01411070
KONL 102055Z AUTO 29009KT 10SM CLR 14/M07 A3010 RMK AO2 T01411070
KONL 102035Z AUTO 30012G20KT 10SM CLR 14/M07 A3010 RMK AO2 T01401068
KONL 102015Z AUTO 29013G20KT 10SM CLR 14/M07 A3010 RMK AO2 T01351066
KONL 101955Z AUTO 30014G19KT 10SM CLR 13/M07 A3011 RMK AO2 T01321066
KONL 101935Z AUTO 29012G17KT 10SM CLR 13/M06 A3011 RMK AO2 T01301065
KONL 101915Z AUTO 29012KT 10SM CLR 13/M07 A3012 RMK AO2 T01251066
KONL 101855Z AUTO 30012KT 10SM CLR 12/M06 A3013 RMK AO2 T01241064
KONL 101835Z AUTO 29013KT 10SM CLR 12/M06 A3013 RMK AO2 T01191065
KONL 101815Z AUTO 31014G18KT 10SM CLR 12/M07 A3014 RMK AO2 T01151066
KONL 101755Z AUTO 30014G19KT 10SM CLR 11/M07 A3014 RMK AO2 T01111067 10111 20032
KONL 101735Z AUTO 31015G21KT 10SM CLR 11/M07 A3015 RMK AO2 T01051069
KONL 101715Z AUTO 32012G17KT 10SM CLR 10/M07 A3015 RMK AO2 T01041067
KONL 101655Z AUTO 32013G18KT 10SM CLR 10/M07 A3015 RMK AO2 T00961070
KONL 101635Z AUTO 31014G18KT 10SM CLR 09/M07 A3016 RMK AO2 T00901067
KONL 101615Z AUTO 29009KT 10SM CLR 08/M07 A3016 RMK AO2 T00801067
KONL 101555Z AUTO 29008KT 10SM CLR 07/M07 A3015 RMK AO2 T00731067
KONL 101535Z AUTO 30005KT 10SM CLR 07/M07 A3015 RMK AO2 T00671069
KONL 101515Z AUTO 30007KT 10SM CLR 06/M07 A3014 RMK AO2 T00571072
KONL 101455Z AUTO 30007KT 10SM CLR 05/M07 A3013 RMK AO2 T00501074
KONL 101435Z AUTO 29008KT 10SM CLR 04/M07 A3013 RMK AO2 T00391075
KONL 101415Z AUTO 30007KT 10SM CLR 03/M07 A3012 RMK AO2 T00321075
KONL 101355Z AUTO 31007KT 10SM CLR 04/M07 A3012 RMK AO2 T00351074
KONL 101335Z AUTO 30006KT 10SM CLR 04/M07 A3012 RMK AO2 T00411072
KONL 101315Z AUTO 31008KT 10SM CLR 05/M07 A3011 RMK AO2 T00541070
KONL 101255Z AUTO 32010KT 10SM CLR 05/M07 A3011 RMK AO2 T00491069
KONL 101235Z AUTO 32006KT 10SM CLR 04/M07 A3010 RMK AO2 T00371071
KONL 101215Z AUTO 31007KT 10SM CLR 04/M07 A3010 RMK AO2 T00431072
KONL 101155Z AUTO 30008KT 10SM CLR 05/M07 A3008 RMK AO2 T00481072 10068 20032
KONL 101135Z AUTO 31014G18KT 10SM CLR 05/M07 A3008 RMK AO2 T00531071
KONL 101115Z AUTO 29011KT 10SM CLR 05/M07 A3008 RMK AO2 T00541073
KONL 101055Z AUTO 30015G22KT 10SM CLR 06/M07 A3008 RMK AO2 T00621073
KONL 101035Z AUTO 30017G22KT 10SM CLR 06/M07 A3007 RMK AO2 T00631075
KONL 101015Z AUTO 30015G20KT 10SM CLR 06/M07 A3007 RMK AO2 T00631074
KONL 100955Z AUTO 30017G21KT 10SM CLR 07/M07 A3007 RMK AO2 T00651073
KONL 100935Z AUTO 30017G25KT 10SM CLR 07/M07 A3006 RMK AO2 T00681073
KONL 100915Z AUTO 30016G21KT 10SM CLR 07/M07 A3006 RMK AO2 T00651071
KONL 100855Z AUTO 30015G20KT 10SM CLR 07/M07 A3005 RMK AO2 T00651070
KONL 100835Z AUTO 30015G20KT 10SM CLR 07/M07 A3005 RMK AO2 T00661068
KONL 100815Z AUTO 30017G23KT 10SM CLR 07/M07 A3004 RMK AO2 T00661067
KONL 100755Z AUTO 29018G23KT 10SM CLR 06/M07 A3004 RMK AO2 T00631066
KONL 100735Z AUTO 29015G20KT 10SM CLR 06/M07 A3004 RMK AO2 T00581066
KONL 100715Z AUTO 28008KT 10SM CLR 05/M06 A3005 RMK AO2 T00481063
KONL 100655Z AUTO 27007KT 10SM CLR 05/M06 A3005 RMK AO2 T00461062
KONL 100635Z AUTO 28008KT 10SM CLR 05/M06 A3005 RMK AO2 T00521061
KONL 100615Z AUTO 28006KT 10SM CLR 04/M06 A3005 RMK AO2 T00411060
KONL 100555Z AUTO 27006KT 10SM CLR 04/M06 A3005 RMK AO2 T00351058 10046 21012 400671045
KONL 100535Z AUTO 28008KT 10SM CLR 03/M05 A3005 RMK AO2 T00331055
KONL 100515Z AUTO 28007KT 10SM CLR 03/M05 A3004 RMK AO2 T00321052
KONL 100455Z AUTO 28009KT 10SM CLR 04/M05 A3004 RMK AO2 T00401051
KONL 100435Z AUTO 28011G15KT 10SM CLR 05/M05 A3004 RMK AO2 T00451050
KONL 100415Z AUTO 27008KT 10SM CLR 03/M05 A3004 RMK AO2 T00311047
KONL 100355Z AUTO 27010KT 10SM CLR 03/M04 A3004 RMK AO2 T00321045
KONL 100335Z AUTO 27010KT 10SM CLR 03/M04 A3004 RMK AO2 T00291045
KONL 100315Z AUTO 26011KT 10SM CLR 03/M04 A3004 RMK AO2 T00281045
KONL 100255Z AUTO 27008KT 10SM CLR 03/M04 A3005 RMK AO2 T00251045